sensor_id;sensor_type;location;lat;lon;timestamp;temperature;humidity
19039;DHT22;9652;49.014;12.052;2024-02-14T00:00:50;6.40;68.40
19039;DHT22;9652;49.014;12.052;2024-02-14T00:03:18;6.40;68.40
19039;DHT22;9652;49.014;12.052;2024-02-14T00:05:47;6.30;68.30
19039;DHT22;9652;49.014;12.052;2024-02-14T00:08:14;6.40;68.40
19039;DHT22;9652;49.014;12.052;2024-02-14T00:10:42;6.40;68.30
19039;DHT22;9652;49.014;12.052;2024-02-14T00:13:10;6.30;68.20
19039;DHT22;9652;49.014;12.052;2024-02-14T00:15:37;6.30;68.20
19039;DHT22;9652;49.014;12.052;2024-02-14T00:18:04;6.30;68.20
19039;DHT22;9652;49.014;12.052;2024-02-14T00:20:32;6.30;68.20
19039;DHT22;9652;49.014;12.052;2024-02-14T00:23:00;6.30;68.20
19039;DHT22;9652;49.014;12.052;2024-02-14T00:25:28;6.30;68.10
19039;DHT22;9652;49.014;12.052;2024-02-14T00:27:55;6.20;68.00
19039;DHT22;9652;49.014;12.052;2024-02-14T00:30:23;6.20;68.00
19039;DHT22;9652;49.014;12.052;2024-02-14T00:32:50;6.20;68.00
19039;DHT22;9652;49.014;12.052;2024-02-14T00:35:17;6.10;67.90
19039;DHT22;9652;49.014;12.052;2024-02-14T00:37:44;6.10;68.00
19039;DHT22;9652;49.014;12.052;2024-02-14T00:40:13;6.10;67.90
19039;DHT22;9652;49.014;12.052;2024-02-14T00:42:40;6.00;68.00
19039;DHT22;9652;49.014;12.052;2024-02-14T00:45:08;6.00;67.90
19039;DHT22;9652;49.014;12.052;2024-02-14T00:47:35;6.00;68.00
19039;DHT22;9652;49.014;12.052;2024-02-14T00:50:03;5.90;67.90
19039;DHT22;9652;49.014;12.052;2024-02-14T00:52:30;5.90;67.90
19039;DHT22;9652;49.014;12.052;2024-02-14T00:54:57;5.90;68.00
19039;DHT22;9652;49.014;12.052;2024-02-14T00:57:26;5.90;68.00
19039;DHT22;9652;49.014;12.052;2024-02-14T00:59:54;5.80;68.10
19039;DHT22;9652;49.014;12.052;2024-02-14T01:02:22;5.80;68.10
19039;DHT22;9652;49.014;12.052;2024-02-14T01:04:49;5.90;68.30
19039;DHT22;9652;49.014;12.052;2024-02-14T01:07:16;5.70;68.20
19039;DHT22;9652;49.014;12.052;2024-02-14T01:09:43;5.70;68.40
19039;DHT22;9652;49.014;12.052;2024-02-14T01:12:10;5.70;68.70
19039;DHT22;9652;49.014;12.052;2024-02-14T01:14:38;5.70;68.90
19039;DHT22;9652;49.014;12.052;2024-02-14T01:17:05;5.80;69.30
19039;DHT22;9652;49.014;12.052;2024-02-14T01:19:33;5.70;69.40
19039;DHT22;9652;49.014;12.052;2024-02-14T01:22:00;5.80;69.60
19039;DHT22;9652;49.014;12.052;2024-02-14T01:24:28;5.80;69.70
19039;DHT22;9652;49.014;12.052;2024-02-14T01:26:55;5.80;69.70
19039;DHT22;9652;49.014;12.052;2024-02-14T01:29:23;5.90;69.90
19039;DHT22;9652;49.014;12.052;2024-02-14T01:31:51;5.90;69.70
19039;DHT22;9652;49.014;12.052;2024-02-14T01:34:18;6.00;69.80
19039;DHT22;9652;49.014;12.052;2024-02-14T01:36:46;6.00;69.70
19039;DHT22;9652;49.014;12.052;2024-02-14T01:39:14;6.10;69.70
19039;DHT22;9652;49.014;12.052;2024-02-14T01:41:44;6.10;69.70
19039;DHT22;9652;49.014;12.052;2024-02-14T01:44:14;6.10;69.80
19039;DHT22;9652;49.014;12.052;2024-02-14T01:46:41;6.10;69.70
19039;DHT22;9652;49.014;12.052;2024-02-14T01:49:10;6.20;69.90
19039;DHT22;9652;49.014;12.052;2024-02-14T01:51:39;6.10;69.90
19039;DHT22;9652;49.014;12.052;2024-02-14T01:54:10;6.20;69.90
19039;DHT22;9652;49.014;12.052;2024-02-14T01:56:39;6.30;70.00
19039;DHT22;9652;49.014;12.052;2024-02-14T01:59:07;6.30;70.00
19039;DHT22;9652;49.014;12.052;2024-02-14T02:01:35;6.40;70.20
19039;DHT22;9652;49.014;12.052;2024-02-14T02:04:03;6.40;70.10
19039;DHT22;9652;49.014;12.052;2024-02-14T02:06:32;6.40;70.20
19039;DHT22;9652;49.014;12.052;2024-02-14T02:08:59;6.40;70.10
19039;DHT22;9652;49.014;12.052;2024-02-14T02:11:27;6.50;70.20
19039;DHT22;9652;49.014;12.052;2024-02-14T02:13:54;6.50;70.10
19039;DHT22;9652;49.014;12.052;2024-02-14T02:16:21;6.50;70.00
19039;DHT22;9652;49.014;12.052;2024-02-14T02:18:48;6.50;69.90
19039;DHT22;9652;49.014;12.052;2024-02-14T02:21:15;6.60;69.90
19039;DHT22;9652;49.014;12.052;2024-02-14T02:23:47;6.60;69.80
19039;DHT22;9652;49.014;12.052;2024-02-14T02:26:14;6.60;69.80
19039;DHT22;9652;49.014;12.052;2024-02-14T02:28:41;6.60;69.80
19039;DHT22;9652;49.014;12.052;2024-02-14T02:31:08;6.60;69.90
19039;DHT22;9652;49.014;12.052;2024-02-14T02:33:35;6.60;69.90
19039;DHT22;9652;49.014;12.052;2024-02-14T02:36:03;6.60;69.90
19039;DHT22;9652;49.014;12.052;2024-02-14T02:38:31;6.70;69.80
19039;DHT22;9652;49.014;12.052;2024-02-14T02:41:00;6.70;69.70
19039;DHT22;9652;49.014;12.052;2024-02-14T02:43:27;6.70;69.60
19039;DHT22;9652;49.014;12.052;2024-02-14T02:45:54;6.70;69.50
19039;DHT22;9652;49.014;12.052;2024-02-14T02:48:22;6.70;69.50
19039;DHT22;9652;49.014;12.052;2024-02-14T02:50:50;6.70;69.40
19039;DHT22;9652;49.014;12.052;2024-02-14T02:53:17;6.60;69.40
19039;DHT22;9652;49.014;12.052;2024-02-14T02:55:45;6.60;69.40
19039;DHT22;9652;49.014;12.052;2024-02-14T02:58:13;6.60;69.40
19039;DHT22;9652;49.014;12.052;2024-02-14T03:00:41;6.60;69.40
19039;DHT22;9652;49.014;12.052;2024-02-14T03:03:08;6.60;69.40
19039;DHT22;9652;49.014;12.052;2024-02-14T03:05:36;6.60;69.30
19039;DHT22;9652;49.014;12.052;2024-02-14T03:08:05;6.60;69.30
19039;DHT22;9652;49.014;12.052;2024-02-14T03:10:33;6.60;69.40
19039;DHT22;9652;49.014;12.052;2024-02-14T03:13:00;6.50;69.20
19039;DHT22;9652;49.014;12.052;2024-02-14T03:15:29;6.50;69.10
19039;DHT22;9652;49.014;12.052;2024-02-14T03:17:56;6.50;69.10
19039;DHT22;9652;49.014;12.052;2024-02-14T03:20:23;6.50;69.10
19039;DHT22;9652;49.014;12.052;2024-02-14T03:22:50;6.40;69.10
19039;DHT22;9652;49.014;12.052;2024-02-14T03:25:20;6.40;69.30
19039;DHT22;9652;49.014;12.052;2024-02-14T03:27:47;6.40;69.60
19039;DHT22;9652;49.014;12.052;2024-02-14T03:30:18;6.40;69.90
19039;DHT22;9652;49.014;12.052;2024-02-14T03:32:47;6.40;70.10
19039;DHT22;9652;49.014;12.052;2024-02-14T03:35:15;6.50;70.30
19039;DHT22;9652;49.014;12.052;2024-02-14T03:37:45;6.50;70.30
19039;DHT22;9652;49.014;12.052;2024-02-14T03:40:14;6.60;70.40
19039;DHT22;9652;49.014;12.052;2024-02-14T03:42:41;6.50;70.30
19039;DHT22;9652;49.014;12.052;2024-02-14T03:45:09;6.70;70.50
19039;DHT22;9652;49.014;12.052;2024-02-14T03:47:36;6.60;70.40
19039;DHT22;9652;49.014;12.052;2024-02-14T03:50:07;6.70;70.30
19039;DHT22;9652;49.014;12.052;2024-02-14T03:52:35;6.70;70.30
19039;DHT22;9652;49.014;12.052;2024-02-14T03:55:03;6.70;70.10
19039;DHT22;9652;49.014;12.052;2024-02-14T03:57:32;6.70;70.00
19039;DHT22;9652;49.014;12.052;2024-02-14T04:00:01;6.70;70.00
19039;DHT22;9652;49.014;12.052;2024-02-14T04:02:37;6.70;69.90
19039;DHT22;9652;49.014;12.052;2024-02-14T04:05:06;6.70;69.80
19039;DHT22;9652;49.014;12.052;2024-02-14T04:07:34;6.70;70.00
19039;DHT22;9652;49.014;12.052;2024-02-14T04:10:02;6.80;69.90
19039;DHT22;9652;49.014;12.052;2024-02-14T04:12:29;6.70;69.90
19039;DHT22;9652;49.014;12.052;2024-02-14T04:14:56;6.70;70.00
19039;DHT22;9652;49.014;12.052;2024-02-14T04:17:23;6.70;70.00
19039;DHT22;9652;49.014;12.052;2024-02-14T04:19:50;6.80;70.00
19039;DHT22;9652;49.014;12.052;2024-02-14T04:22:19;6.70;70.00
19039;DHT22;9652;49.014;12.052;2024-02-14T04:24:46;6.70;70.00
19039;DHT22;9652;49.014;12.052;2024-02-14T04:27:13;6.70;69.90
19039;DHT22;9652;49.014;12.052;2024-02-14T04:29:40;6.70;69.90
19039;DHT22;9652;49.014;12.052;2024-02-14T04:32:12;6.70;69.80
19039;DHT22;9652;49.014;12.052;2024-02-14T04:34:39;6.70;69.80
19039;DHT22;9652;49.014;12.052;2024-02-14T04:37:07;6.70;69.70
19039;DHT22;9652;49.014;12.052;2024-02-14T04:39:39;6.70;69.50
19039;DHT22;9652;49.014;12.052;2024-02-14T04:42:06;6.70;69.40
19039;DHT22;9652;49.014;12.052;2024-02-14T04:44:34;6.70;69.40
19039;DHT22;9652;49.014;12.052;2024-02-14T04:47:01;6.70;69.60
19039;DHT22;9652;49.014;12.052;2024-02-14T04:49:28;6.60;69.80
19039;DHT22;9652;49.014;12.052;2024-02-14T04:51:56;6.60;69.80
19039;DHT22;9652;49.014;12.052;2024-02-14T04:54:24;6.60;69.70
19039;DHT22;9652;49.014;12.052;2024-02-14T04:56:53;6.60;69.70
19039;DHT22;9652;49.014;12.052;2024-02-14T04:59:20;6.60;70.60
19039;DHT22;9652;49.014;12.052;2024-02-14T05:01:47;6.60;69.80
19039;DHT22;9652;49.014;12.052;2024-02-14T05:04:15;6.60;69.80
19039;DHT22;9652;49.014;12.052;2024-02-14T05:06:43;6.60;69.80
19039;DHT22;9652;49.014;12.052;2024-02-14T05:09:10;6.50;69.80
19039;DHT22;9652;49.014;12.052;2024-02-14T05:11:37;6.50;69.80
19039;DHT22;9652;49.014;12.052;2024-02-14T05:14:05;6.50;69.80
19039;DHT22;9652;49.014;12.052;2024-02-14T05:16:33;6.50;69.80
19039;DHT22;9652;49.014;12.052;2024-02-14T05:19:00;6.50;69.80
19039;DHT22;9652;49.014;12.052;2024-02-14T05:21:28;6.40;69.90
19039;DHT22;9652;49.014;12.052;2024-02-14T05:23:55;6.40;69.90
19039;DHT22;9652;49.014;12.052;2024-02-14T05:26:22;6.30;69.90
19039;DHT22;9652;49.014;12.052;2024-02-14T05:28:49;6.30;69.90
19039;DHT22;9652;49.014;12.052;2024-02-14T05:31:18;6.30;70.00
19039;DHT22;9652;49.014;12.052;2024-02-14T05:33:45;6.30;70.10
19039;DHT22;9652;49.014;12.052;2024-02-14T05:36:12;6.20;69.90
19039;DHT22;9652;49.014;12.052;2024-02-14T05:38:39;6.30;70.00
19039;DHT22;9652;49.014;12.052;2024-02-14T05:41:06;6.20;70.00
19039;DHT22;9652;49.014;12.052;2024-02-14T05:43:34;6.10;70.00
19039;DHT22;9652;49.014;12.052;2024-02-14T05:46:01;6.10;70.10
19039;DHT22;9652;49.014;12.052;2024-02-14T05:48:29;6.10;70.00
19039;DHT22;9652;49.014;12.052;2024-02-14T05:50:56;6.10;70.30
19039;DHT22;9652;49.014;12.052;2024-02-14T05:53:23;6.10;70.40
19039;DHT22;9652;49.014;12.052;2024-02-14T05:55:50;6.10;70.70
19039;DHT22;9652;49.014;12.052;2024-02-14T05:58:18;6.10;70.80
19039;DHT22;9652;49.014;12.052;2024-02-14T06:00:45;6.10;71.70
19039;DHT22;9652;49.014;12.052;2024-02-14T06:03:12;6.10;71.00
19039;DHT22;9652;49.014;12.052;2024-02-14T06:05:40;6.10;71.10
19039;DHT22;9652;49.014;12.052;2024-02-14T06:08:08;6.10;71.20
19039;DHT22;9652;49.014;12.052;2024-02-14T06:10:35;6.10;71.30
19039;DHT22;9652;49.014;12.052;2024-02-14T06:13:04;6.10;71.40
19039;DHT22;9652;49.014;12.052;2024-02-14T06:15:31;6.10;71.40
19039;DHT22;9652;49.014;12.052;2024-02-14T06:17:58;6.20;71.40
19039;DHT22;9652;49.014;12.052;2024-02-14T06:20:25;6.20;71.30
19039;DHT22;9652;49.014;12.052;2024-02-14T06:22:54;6.20;71.30
19039;DHT22;9652;49.014;12.052;2024-02-14T06:25:21;6.20;71.30
19039;DHT22;9652;49.014;12.052;2024-02-14T06:27:48;6.20;71.50
19039;DHT22;9652;49.014;12.052;2024-02-14T06:30:15;6.20;71.80
19039;DHT22;9652;49.014;12.052;2024-02-14T06:32:43;6.30;72.10
19039;DHT22;9652;49.014;12.052;2024-02-14T06:35:10;6.30;72.40
19039;DHT22;9652;49.014;12.052;2024-02-14T06:37:40;6.40;72.70
19039;DHT22;9652;49.014;12.052;2024-02-14T06:40:09;6.50;72.80
19039;DHT22;9652;49.014;12.052;2024-02-14T06:42:37;6.50;72.80
19039;DHT22;9652;49.014;12.052;2024-02-14T06:45:06;6.60;72.80
19039;DHT22;9652;49.014;12.052;2024-02-14T06:47:34;6.60;72.80
19039;DHT22;9652;49.014;12.052;2024-02-14T06:50:01;6.80;72.80
19039;DHT22;9652;49.014;12.052;2024-02-14T06:52:28;6.80;72.70
19039;DHT22;9652;49.014;12.052;2024-02-14T06:54:55;6.90;72.70
19039;DHT22;9652;49.014;12.052;2024-02-14T06:57:25;6.90;72.70
19039;DHT22;9652;49.014;12.052;2024-02-14T06:59:52;7.00;72.70
19039;DHT22;9652;49.014;12.052;2024-02-14T07:02:19;7.10;72.50
19039;DHT22;9652;49.014;12.052;2024-02-14T07:04:46;7.10;73.20
19039;DHT22;9652;49.014;12.052;2024-02-14T07:07:13;7.10;72.30
19039;DHT22;9652;49.014;12.052;2024-02-14T07:09:41;7.20;72.30
19039;DHT22;9652;49.014;12.052;2024-02-14T07:12:08;7.30;72.40
19039;DHT22;9652;49.014;12.052;2024-02-14T07:14:36;7.40;72.30
19039;DHT22;9652;49.014;12.052;2024-02-14T07:17:03;7.40;72.20
19039;DHT22;9652;49.014;12.052;2024-02-14T07:19:31;7.50;72.20
19039;DHT22;9652;49.014;12.052;2024-02-14T07:21:58;7.50;72.20
19039;DHT22;9652;49.014;12.052;2024-02-14T07:24:25;7.60;72.30
19039;DHT22;9652;49.014;12.052;2024-02-14T07:26:52;7.60;72.20
19039;DHT22;9652;49.014;12.052;2024-02-14T07:29:19;7.70;72.10
19039;DHT22;9652;49.014;12.052;2024-02-14T07:31:47;7.80;72.10
19039;DHT22;9652;49.014;12.052;2024-02-14T07:34:14;7.80;72.00
19039;DHT22;9652;49.014;12.052;2024-02-14T07:36:41;7.80;71.90
19039;DHT22;9652;49.014;12.052;2024-02-14T07:39:12;7.90;72.10
19039;DHT22;9652;49.014;12.052;2024-02-14T07:41:39;7.90;72.10
19039;DHT22;9652;49.014;12.052;2024-02-14T07:44:06;8.00;72.10
19039;DHT22;9652;49.014;12.052;2024-02-14T07:46:33;8.10;72.00
19039;DHT22;9652;49.014;12.052;2024-02-14T07:49:01;8.10;72.00
19039;DHT22;9652;49.014;12.052;2024-02-14T07:51:30;8.20;72.10
19039;DHT22;9652;49.014;12.052;2024-02-14T07:54:02;8.30;72.20
19039;DHT22;9652;49.014;12.052;2024-02-14T07:56:29;8.40;72.20
19039;DHT22;9652;49.014;12.052;2024-02-14T07:58:56;8.40;72.00
19039;DHT22;9652;49.014;12.052;2024-02-14T08:01:23;8.50;72.00
19039;DHT22;9652;49.014;12.052;2024-02-14T08:03:51;8.60;72.00
19039;DHT22;9652;49.014;12.052;2024-02-14T08:06:20;8.60;72.00
19039;DHT22;9652;49.014;12.052;2024-02-14T08:08:47;8.70;72.10
19039;DHT22;9652;49.014;12.052;2024-02-14T08:11:17;8.80;72.00
19039;DHT22;9652;49.014;12.052;2024-02-14T08:13:44;8.90;72.00
19039;DHT22;9652;49.014;12.052;2024-02-14T08:16:11;8.90;71.90
19039;DHT22;9652;49.014;12.052;2024-02-14T08:18:39;9.00;71.90
19039;DHT22;9652;49.014;12.052;2024-02-14T08:21:09;9.10;71.80
19039;DHT22;9652;49.014;12.052;2024-02-14T08:23:39;9.20;71.70
19039;DHT22;9652;49.014;12.052;2024-02-14T08:26:07;9.30;71.30
19039;DHT22;9652;49.014;12.052;2024-02-14T08:28:36;9.40;71.10
19039;DHT22;9652;49.014;12.052;2024-02-14T08:31:03;9.40;70.80
19039;DHT22;9652;49.014;12.052;2024-02-14T08:33:36;9.50;70.70
19039;DHT22;9652;49.014;12.052;2024-02-14T08:36:03;9.50;70.50
19039;DHT22;9652;49.014;12.052;2024-02-14T08:38:31;9.50;70.50
19039;DHT22;9652;49.014;12.052;2024-02-14T08:41:00;9.60;70.50
19039;DHT22;9652;49.014;12.052;2024-02-14T08:43:28;9.60;70.20
19039;DHT22;9652;49.014;12.052;2024-02-14T08:45:55;9.60;70.00
19039;DHT22;9652;49.014;12.052;2024-02-14T08:48:23;9.60;69.80
19039;DHT22;9652;49.014;12.052;2024-02-14T08:50:52;9.60;69.60
19039;DHT22;9652;49.014;12.052;2024-02-14T08:53:20;9.60;69.40
19039;DHT22;9652;49.014;12.052;2024-02-14T08:55:47;9.60;69.30
19039;DHT22;9652;49.014;12.052;2024-02-14T08:58:16;9.50;69.40
19039;DHT22;9652;49.014;12.052;2024-02-14T09:00:43;9.50;69.70
19039;DHT22;9652;49.014;12.052;2024-02-14T09:03:10;9.50;70.40
19039;DHT22;9652;49.014;12.052;2024-02-14T09:05:37;9.60;71.10
19039;DHT22;9652;49.014;12.052;2024-02-14T09:08:05;9.60;71.50
19039;DHT22;9652;49.014;12.052;2024-02-14T09:10:32;9.70;71.60
19039;DHT22;9652;49.014;12.052;2024-02-14T09:12:59;9.80;71.60
19039;DHT22;9652;49.014;12.052;2024-02-14T09:15:29;10.00;71.50
19039;DHT22;9652;49.014;12.052;2024-02-14T09:17:57;10.10;71.40
19039;DHT22;9652;49.014;12.052;2024-02-14T09:20:25;10.20;71.50
19039;DHT22;9652;49.014;12.052;2024-02-14T09:22:52;10.30;71.50
19039;DHT22;9652;49.014;12.052;2024-02-14T09:25:20;10.40;71.50
19039;DHT22;9652;49.014;12.052;2024-02-14T09:27:48;10.50;71.50
19039;DHT22;9652;49.014;12.052;2024-02-14T09:30:16;10.70;71.40
19039;DHT22;9652;49.014;12.052;2024-02-14T09:32:45;10.80;71.20
19039;DHT22;9652;49.014;12.052;2024-02-14T09:35:13;10.90;71.10
19039;DHT22;9652;49.014;12.052;2024-02-14T09:37:40;11.00;71.10
19039;DHT22;9652;49.014;12.052;2024-02-14T09:40:09;11.10;71.10
19039;DHT22;9652;49.014;12.052;2024-02-14T09:42:44;11.20;71.20
19039;DHT22;9652;49.014;12.052;2024-02-14T09:45:16;11.30;71.10
19039;DHT22;9652;49.014;12.052;2024-02-14T09:47:46;11.50;71.20
19039;DHT22;9652;49.014;12.052;2024-02-14T09:50:15;11.70;71.00
19039;DHT22;9652;49.014;12.052;2024-02-14T09:52:43;11.80;70.70
19039;DHT22;9652;49.014;12.052;2024-02-14T09:55:14;11.90;70.50
19039;DHT22;9652;49.014;12.052;2024-02-14T09:57:43;12.00;70.10
19039;DHT22;9652;49.014;12.052;2024-02-14T10:00:11;12.10;69.90
19039;DHT22;9652;49.014;12.052;2024-02-14T10:02:40;12.20;69.70
19039;DHT22;9652;49.014;12.052;2024-02-14T10:05:09;12.30;69.50
19039;DHT22;9652;49.014;12.052;2024-02-14T10:07:41;12.30;69.30
19039;DHT22;9652;49.014;12.052;2024-02-14T10:10:09;12.30;69.30
19039;DHT22;9652;49.014;12.052;2024-02-14T10:12:37;12.30;69.40
19039;DHT22;9652;49.014;12.052;2024-02-14T10:15:08;12.30;69.20
19039;DHT22;9652;49.014;12.052;2024-02-14T10:17:36;12.30;69.00
19039;DHT22;9652;49.014;12.052;2024-02-14T10:20:07;12.40;68.90
19039;DHT22;9652;49.014;12.052;2024-02-14T10:22:38;12.40;69.50
19039;DHT22;9652;49.014;12.052;2024-02-14T10:25:06;12.40;68.50
19039;DHT22;9652;49.014;12.052;2024-02-14T10:27:35;12.40;68.50
19039;DHT22;9652;49.014;12.052;2024-02-14T10:30:05;12.40;68.50
19039;DHT22;9652;49.014;12.052;2024-02-14T10:32:35;12.40;68.70
19039;DHT22;9652;49.014;12.052;2024-02-14T10:35:04;12.40;68.60
19039;DHT22;9652;49.014;12.052;2024-02-14T10:37:36;12.40;68.40
19039;DHT22;9652;49.014;12.052;2024-02-14T10:40:08;12.40;68.20
19039;DHT22;9652;49.014;12.052;2024-02-14T10:42:37;12.50;68.30
19039;DHT22;9652;49.014;12.052;2024-02-14T10:45:07;12.40;68.20
19039;DHT22;9652;49.014;12.052;2024-02-14T10:47:35;12.50;68.00
19039;DHT22;9652;49.014;12.052;2024-02-14T10:50:07;12.40;67.80
19039;DHT22;9652;49.014;12.052;2024-02-14T10:52:36;12.40;68.00
19039;DHT22;9652;49.014;12.052;2024-02-14T10:55:08;12.40;68.20
19039;DHT22;9652;49.014;12.052;2024-02-14T10:57:37;12.40;68.10
19039;DHT22;9652;49.014;12.052;2024-02-14T11:00:08;12.40;69.00
19039;DHT22;9652;49.014;12.052;2024-02-14T11:02:39;12.30;68.00
19039;DHT22;9652;49.014;12.052;2024-02-14T11:05:12;12.30;67.80
19039;DHT22;9652;49.014;12.052;2024-02-14T11:07:45;12.30;67.80
19039;DHT22;9652;49.014;12.052;2024-02-14T11:10:15;12.30;68.10
19039;DHT22;9652;49.014;12.052;2024-02-14T11:12:46;12.20;68.30
19039;DHT22;9652;49.014;12.052;2024-02-14T11:15:17;12.20;68.50
19039;DHT22;9652;49.014;12.052;2024-02-14T11:17:46;12.20;68.70
19039;DHT22;9652;49.014;12.052;2024-02-14T11:20:18;12.30;69.00
19039;DHT22;9652;49.014;12.052;2024-02-14T11:22:53;12.30;68.90
19039;DHT22;9652;49.014;12.052;2024-02-14T11:25:32;12.30;68.60
19039;DHT22;9652;49.014;12.052;2024-02-14T11:28:12;12.40;68.70
19039;DHT22;9652;49.014;12.052;2024-02-14T11:30:40;12.40;68.90
19039;DHT22;9652;49.014;12.052;2024-02-14T11:33:18;12.50;68.80
19039;DHT22;9652;49.014;12.052;2024-02-14T11:35:47;12.50;68.60
19039;DHT22;9652;49.014;12.052;2024-02-14T11:38:18;12.60;68.80
19039;DHT22;9652;49.014;12.052;2024-02-14T11:40:45;12.60;68.80
19039;DHT22;9652;49.014;12.052;2024-02-14T11:43:13;12.60;69.10
19039;DHT22;9652;49.014;12.052;2024-02-14T11:45:43;12.70;69.40
19039;DHT22;9652;49.014;12.052;2024-02-14T11:48:12;12.80;69.50
19039;DHT22;9652;49.014;12.052;2024-02-14T11:50:40;12.90;69.60
19039;DHT22;9652;49.014;12.052;2024-02-14T11:53:09;13.00;69.50
19039;DHT22;9652;49.014;12.052;2024-02-14T11:55:38;13.10;69.10
19039;DHT22;9652;49.014;12.052;2024-02-14T11:58:07;13.20;68.70
19039;DHT22;9652;49.014;12.052;2024-02-14T12:00:37;13.30;68.80
19039;DHT22;9652;49.014;12.052;2024-02-14T12:03:07;13.30;68.40
19039;DHT22;9652;49.014;12.052;2024-02-14T12:05:37;13.40;68.40
19039;DHT22;9652;49.014;12.052;2024-02-14T12:08:06;13.50;68.40
19039;DHT22;9652;49.014;12.052;2024-02-14T12:10:35;13.50;68.20
19039;DHT22;9652;49.014;12.052;2024-02-14T12:13:11;13.60;67.90
19039;DHT22;9652;49.014;12.052;2024-02-14T12:15:40;13.60;67.40
19039;DHT22;9652;49.014;12.052;2024-02-14T12:18:08;13.60;67.60
19039;DHT22;9652;49.014;12.052;2024-02-14T12:20:37;13.60;67.40
19039;DHT22;9652;49.014;12.052;2024-02-14T12:23:05;13.60;67.40
19039;DHT22;9652;49.014;12.052;2024-02-14T12:25:33;13.70;67.60
19039;DHT22;9652;49.014;12.052;2024-02-14T12:28:00;13.70;67.50
19039;DHT22;9652;49.014;12.052;2024-02-14T12:30:43;13.70;67.60
19039;DHT22;9652;49.014;12.052;2024-02-14T12:33:12;13.70;67.30
19039;DHT22;9652;49.014;12.052;2024-02-14T12:35:44;13.80;67.90
19039;DHT22;9652;49.014;12.052;2024-02-14T12:38:13;13.80;67.70
19039;DHT22;9652;49.014;12.052;2024-02-14T12:40:42;13.90;68.00
19039;DHT22;9652;49.014;12.052;2024-02-14T12:43:10;14.00;68.00
19039;DHT22;9652;49.014;12.052;2024-02-14T12:45:40;14.00;67.80
19039;DHT22;9652;49.014;12.052;2024-02-14T12:48:09;14.10;67.60
19039;DHT22;9652;49.014;12.052;2024-02-14T12:50:39;14.10;67.20
19039;DHT22;9652;49.014;12.052;2024-02-14T12:53:13;14.20;66.80
19039;DHT22;9652;49.014;12.052;2024-02-14T12:55:41;14.20;66.50
19039;DHT22;9652;49.014;12.052;2024-02-14T12:58:08;14.20;66.50
19039;DHT22;9652;49.014;12.052;2024-02-14T13:00:36;14.20;66.50
19039;DHT22;9652;49.014;12.052;2024-02-14T13:03:05;14.20;66.50
19039;DHT22;9652;49.014;12.052;2024-02-14T13:05:32;14.20;66.50
19039;DHT22;9652;49.014;12.052;2024-02-14T13:08:00;14.20;66.30
19039;DHT22;9652;49.014;12.052;2024-02-14T13:10:27;14.10;66.10
19039;DHT22;9652;49.014;12.052;2024-02-14T13:12:56;14.20;66.20
19039;DHT22;9652;49.014;12.052;2024-02-14T13:15:24;14.20;66.40
19039;DHT22;9652;49.014;12.052;2024-02-14T13:17:51;14.20;66.70
19039;DHT22;9652;49.014;12.052;2024-02-14T13:20:19;14.30;67.00
19039;DHT22;9652;49.014;12.052;2024-02-14T13:22:46;14.30;66.80
19039;DHT22;9652;49.014;12.052;2024-02-14T13:25:13;14.40;67.00
19039;DHT22;9652;49.014;12.052;2024-02-14T13:27:41;14.40;67.00
19039;DHT22;9652;49.014;12.052;2024-02-14T13:30:10;14.50;66.80
19039;DHT22;9652;49.014;12.052;2024-02-14T13:32:37;14.60;67.40
19039;DHT22;9652;49.014;12.052;2024-02-14T13:35:05;14.60;66.60
19039;DHT22;9652;49.014;12.052;2024-02-14T13:37:35;14.60;66.50
19039;DHT22;9652;49.014;12.052;2024-02-14T13:40:02;14.60;66.30
19039;DHT22;9652;49.014;12.052;2024-02-14T13:42:34;14.70;66.10
19039;DHT22;9652;49.014;12.052;2024-02-14T13:45:02;14.70;65.90
19039;DHT22;9652;49.014;12.052;2024-02-14T13:47:29;14.70;65.70
19039;DHT22;9652;49.014;12.052;2024-02-14T13:49:56;14.50;65.40
19039;DHT22;9652;49.014;12.052;2024-02-14T13:52:23;14.60;65.40
19039;DHT22;9652;49.014;12.052;2024-02-14T13:54:52;14.60;65.70
19039;DHT22;9652;49.014;12.052;2024-02-14T13:57:19;14.50;65.80
19039;DHT22;9652;49.014;12.052;2024-02-14T13:59:46;14.40;65.60
19039;DHT22;9652;49.014;12.052;2024-02-14T14:02:13;14.40;65.40
19039;DHT22;9652;49.014;12.052;2024-02-14T14:04:40;14.40;65.30
19039;DHT22;9652;49.014;12.052;2024-02-14T14:07:08;14.30;65.40
19039;DHT22;9652;49.014;12.052;2024-02-14T14:09:35;14.20;65.50
19039;DHT22;9652;49.014;12.052;2024-02-14T14:12:04;14.20;65.60
19039;DHT22;9652;49.014;12.052;2024-02-14T14:14:32;14.10;65.60
19039;DHT22;9652;49.014;12.052;2024-02-14T14:16:59;14.10;65.80
19039;DHT22;9652;49.014;12.052;2024-02-14T14:19:26;14.10;66.20
19039;DHT22;9652;49.014;12.052;2024-02-14T14:21:53;14.00;66.60
19039;DHT22;9652;49.014;12.052;2024-02-14T14:24:21;14.00;67.00
19039;DHT22;9652;49.014;12.052;2024-02-14T14:26:49;14.10;67.30
19039;DHT22;9652;49.014;12.052;2024-02-14T14:29:18;14.10;67.40
19039;DHT22;9652;49.014;12.052;2024-02-14T14:31:45;14.20;67.60
19039;DHT22;9652;49.014;12.052;2024-02-14T14:34:12;14.30;67.80
19039;DHT22;9652;49.014;12.052;2024-02-14T14:36:39;14.40;67.70
19039;DHT22;9652;49.014;12.052;2024-02-14T14:39:07;14.40;67.50
19039;DHT22;9652;49.014;12.052;2024-02-14T14:41:36;14.50;67.70
19039;DHT22;9652;49.014;12.052;2024-02-14T14:44:04;14.60;67.60
19039;DHT22;9652;49.014;12.052;2024-02-14T14:46:32;14.70;67.50
19039;DHT22;9652;49.014;12.052;2024-02-14T14:49:01;14.70;67.10
19039;DHT22;9652;49.014;12.052;2024-02-14T14:51:28;14.80;66.90
19039;DHT22;9652;49.014;12.052;2024-02-14T14:53:56;14.80;66.60
19039;DHT22;9652;49.014;12.052;2024-02-14T14:56:23;14.90;66.40
19039;DHT22;9652;49.014;12.052;2024-02-14T14:58:52;14.80;66.10
19039;DHT22;9652;49.014;12.052;2024-02-14T15:01:19;14.80;65.80
19039;DHT22;9652;49.014;12.052;2024-02-14T15:03:48;14.80;65.80
19039;DHT22;9652;49.014;12.052;2024-02-14T15:06:15;14.70;65.60
19039;DHT22;9652;49.014;12.052;2024-02-14T15:08:42;14.70;65.60
19039;DHT22;9652;49.014;12.052;2024-02-14T15:11:11;14.60;65.70
19039;DHT22;9652;49.014;12.052;2024-02-14T15:13:40;14.60;65.90
19039;DHT22;9652;49.014;12.052;2024-02-14T15:16:08;14.50;66.10
19039;DHT22;9652;49.014;12.052;2024-02-14T15:18:35;14.40;66.10
19039;DHT22;9652;49.014;12.052;2024-02-14T15:21:04;14.40;66.30
19039;DHT22;9652;49.014;12.052;2024-02-14T15:23:32;14.40;66.20
19039;DHT22;9652;49.014;12.052;2024-02-14T15:25:59;14.40;66.20
19039;DHT22;9652;49.014;12.052;2024-02-14T15:28:29;14.30;66.00
19039;DHT22;9652;49.014;12.052;2024-02-14T15:30:57;14.30;66.00
19039;DHT22;9652;49.014;12.052;2024-02-14T15:33:42;14.30;66.00
19039;DHT22;9652;49.014;12.052;2024-02-14T15:36:10;14.20;65.80
19039;DHT22;9652;49.014;12.052;2024-02-14T15:38:41;14.10;65.80
19039;DHT22;9652;49.014;12.052;2024-02-14T15:41:08;14.10;65.80
19039;DHT22;9652;49.014;12.052;2024-02-14T15:43:35;14.00;65.80
19039;DHT22;9652;49.014;12.052;2024-02-14T15:46:02;13.90;65.90